Wilmington New Castle Airport

Current Flights

Arrivals
Info
Name: Wilmington New Castle Airport
Identifier:  ILG/KILG
Local Time:  19. May 11:37
City
Flights per Day
14 flights
Distance: 644km (400mi)
Punctuality
90% (1 flights per day delayed)
Delay Average: 37 minutes
Current Weather
 23 C (Humidity: 73%)
  9kt (16km/h / 10mph) from 180°
  16km (10 mi.)
 
 METAR KILG 191451Z 18009KT 10SM CLR 23/18 A3005 RMK AO2 SLP175 T02330183 58007

Current Delays

Departures
N/A
Arrivals
N/A

Destinations

Top Destinations
Airport Flights
per week
Seats
per week
  Statesville (SVH) <1 - 0 0
  Teterboro (TEB) <1 - 0 0
  West Palm Beach (PBI) <1 - 0 0
  Raleigh-Durham (RDU) <1 - 0 0
  Lancaster (LNS) <1 - 0 0
  Philadelphia (PNE) <1 - 0 0
  White Plains (HPN) <1 - 0 0
  Baltimore (BWI) <1 - 0 0

Airlines & Planes

Top Airlines
Airline Flights
per Day
Seats
per Day
  Nolinor Aviation 1 -
  Flybe Nordic 1 -
Jet Charter Inc ( Franklin Lakes Nj ) 1 -
NetJets 1 -1
  National Airlines <1 -
Gama Aviation <1 -
Delta Private Jets <1 -
  Centennial Airlines <1 -
Top Plane Types
Manufacturer Model Flights Seats
Embraer ERJ145 0.8/day 1/day 1.6666666666666667
Cessna C560 0.6/day - 0
Cirrus SR22 0.5/day - 0
Bombardier Challenger 350 0.4/day - -0.6
Pilatus PC-12 0.4/day - 0
Bombardier Challenger 600 0.4/day - -0.2
Hawker Beechcraft 400XP 0.3/day - 0
Cessna C750 0.3/day - -0.06666666666666667